VTSS/HDY METAR and TAF weather

Enter ICAO airport designator
Station Type Date Time Source
VTSS METAR 2021/07/28 03:00 UTC NOAA

VTSS 280300Z 24012KT 9999 -RA FEW018CB SCT020 BKN100 31/24 Q1010 NOSIG


Station Type Date Time Source
VTSS Decoded METAR 2021/07/28 03:00 UTC NOAA

Hat Yai, Thailand (VTSS) 06-55N 100-26E 35M
Jul 27, 2021 - 11:00 PM EDT / 2021.07.28 0300 UTC
Wind: from the WSW (240 degrees) at 14 MPH (12 KT):0
Visibility: greater than 7 mile(s):0
Sky conditions: mostly cloudy
Weather: light rain; Cumulonimbus clouds observed
Temperature: 87 F (31 C)
Heat index: 95.7 F (35.4 C):1
Dew Point: 75 F (24 C)
Relative Humidity: 66%
Pressure (altimeter): 29.83 in. Hg (1010 hPa)
ob: VTSS 280300Z 24012KT 9999 -RA FEW018CB SCT020 BKN100 31/24 Q1010 NOSIG
cycle: 3

Station Type Date Time Source
VTSS TAF 2021/07/27 18:36 UTC NOAA

TAF VTSS 271700Z 2718/2818 24003KT 9999 FEW020

Example: see airport list